Terminal Aerodrome Forecast
Issued by NWS Paducah, KY

Home | Current Version | Previous Version | Text Only | Print | Product List | Glossary Off
Versions: 1 2 3 4 5 6 7 8 9 10 11 12 13 14 15 16 17 18

909
FTUS43 KPAH 241014 AAB
TAFPAH
TAF AMD
KPAH 241014Z 2410/2506 00000KT 5SM BR SKC
     FM241300 20005KT P6SM SCT035 SCT250=

USA.gov is the U.S. government's official web portal to all federal, state and local government web resources and services.